createdAt,value
2019-05-16T00:02:08.212Z,8.83
2019-05-16T00:04:42.271Z,8.81
2019-05-16T00:07:18.944Z,8.80
2019-05-16T00:09:51.749Z,8.79
2019-05-16T00:12:25.720Z,8.80
2019-05-16T00:14:58.902Z,8.76
2019-05-16T00:17:32.836Z,8.79
2019-05-16T00:20:09.260Z,8.78
2019-05-16T00:22:43.903Z,8.80
2019-05-16T00:25:18.111Z,8.81
2019-05-16T00:27:52.018Z,8.78
2019-05-16T00:30:28.496Z,8.78
2019-05-16T00:33:01.377Z,8.78
2019-05-16T00:35:35.219Z,8.74
2019-05-16T00:38:09.083Z,8.73
2019-05-16T00:40:43.917Z,8.74
2019-05-16T00:43:18.384Z,8.74
2019-05-16T00:45:53.583Z,8.74
2019-05-16T00:48:28.855Z,8.74
2019-05-16T00:51:03.111Z,8.73
2019-05-16T00:53:38.100Z,8.74
2019-05-16T00:56:11.352Z,8.74
2019-05-16T00:58:48.437Z,8.70
2019-05-16T01:01:22.473Z,8.68
2019-05-16T01:03:58.610Z,8.67
2019-05-16T01:06:32.225Z,8.63
2019-05-16T01:09:08.604Z,8.65
2019-05-16T01:11:42.666Z,8.66
2019-05-16T01:14:17.728Z,8.63
2019-05-16T01:16:51.613Z,8.63
2019-05-16T01:19:27.793Z,8.66
2019-05-16T01:22:02.037Z,8.66
2019-05-16T01:24:35.164Z,8.65
2019-05-16T01:27:09.060Z,8.66
2019-05-16T01:29:43.178Z,8.69
2019-05-16T01:32:18.829Z,8.71
2019-05-16T01:34:50.983Z,8.75
2019-05-16T01:37:24.976Z,8.73
2019-05-16T01:39:58.749Z,8.71
2019-05-16T01:42:32.759Z,8.73
2019-05-16T01:45:08.439Z,8.73
2019-05-16T01:47:42.385Z,8.72
2019-05-16T01:50:18.138Z,8.66
2019-05-16T01:52:52.318Z,8.64
2019-05-16T01:55:26.089Z,8.61
2019-05-16T01:57:59.924Z,8.60
2019-05-16T02:00:37.735Z,8.56
2019-05-16T02:03:09.895Z,8.55
2019-05-16T02:05:42.984Z,8.51
2019-05-16T02:08:18.280Z,8.49
2019-05-16T02:10:52.216Z,8.50
2019-05-16T02:13:28.392Z,8.50
2019-05-16T02:16:01.871Z,8.46
2019-05-16T02:18:35.046Z,8.47
2019-05-16T02:21:08.885Z,8.48
2019-05-16T02:23:42.867Z,8.45
2019-05-16T02:26:16.048Z,8.46
2019-05-16T02:28:50.960Z,8.45
2019-05-16T02:31:25.436Z,8.43
2019-05-16T02:34:01.206Z,8.45
2019-05-16T02:36:35.149Z,8.46
2019-05-16T02:39:11.244Z,8.48
2019-05-16T02:41:46.126Z,8.50
2019-05-16T02:44:20.816Z,8.49
2019-05-16T02:46:55.627Z,8.49
2019-05-16T02:49:30.698Z,8.49
2019-05-16T02:52:05.118Z,8.49
2019-05-16T02:54:41.209Z,8.50
2019-05-16T02:57:14.822Z,8.51
2019-05-16T02:59:50.713Z,8.51
2019-05-16T03:02:23.648Z,8.53
2019-05-16T03:04:56.768Z,8.53
2019-05-16T03:07:41.111Z,8.52
2019-05-16T03:10:10.905Z,8.54
2019-05-16T03:12:44.324Z,8.54
2019-05-16T03:15:21.525Z,8.55
2019-05-16T03:17:58.794Z,8.55
2019-05-16T03:20:33.855Z,8.58
2019-05-16T03:23:11.014Z,8.59
2019-05-16T03:25:43.302Z,8.62
2019-05-16T03:28:17.121Z,8.64
2019-05-16T03:30:54.441Z,8.66
2019-05-16T03:33:35.174Z,8.70
2019-05-16T03:36:04.610Z,8.70
2019-05-16T03:38:41.084Z,8.73
2019-05-16T03:41:13.587Z,8.75
2019-05-16T03:43:50.513Z,8.77
2019-05-16T03:46:23.130Z,8.82
2019-05-16T03:48:57.069Z,8.85
2019-05-16T03:51:31.116Z,8.87
2019-05-16T03:54:04.280Z,8.90
2019-05-16T03:56:40.578Z,8.95
2019-05-16T03:59:13.609Z,8.99
2019-05-16T04:01:47.556Z,9.05
2019-05-16T04:04:21.527Z,9.10
2019-05-16T04:06:55.415Z,9.14
2019-05-16T04:09:31.547Z,9.18
2019-05-16T04:12:04.834Z,9.23
2019-05-16T04:14:40.881Z,9.26
2019-05-16T04:17:14.175Z,9.29
2019-05-16T04:19:50.678Z,9.34
2019-05-16T04:22:23.745Z,9.37
2019-05-16T04:24:56.844Z,9.38
2019-05-16T04:27:31.110Z,9.41
2019-05-16T04:30:07.299Z,9.41
2019-05-16T04:32:42.122Z,9.44
2019-05-16T04:35:16.468Z,9.44
2019-05-16T04:37:51.327Z,9.46
2019-05-16T04:40:25.408Z,9.50
2019-05-16T04:43:01.189Z,9.54
2019-05-16T04:45:34.779Z,9.56
2019-05-16T04:48:11.242Z,9.62
2019-05-16T04:50:44.225Z,9.65
2019-05-16T04:53:20.639Z,9.71
2019-05-16T04:55:53.599Z,9.76
2019-05-16T04:58:27.582Z,9.82
2019-05-16T05:01:01.947Z,9.90
2019-05-16T05:03:35.914Z,9.99
2019-05-16T05:06:11.325Z,10.11
2019-05-16T05:08:54.021Z,10.11
2019-05-16T05:11:21.668Z,10.16
2019-05-16T05:13:55.766Z,10.18
2019-05-16T05:16:30.631Z,10.25
2019-05-16T05:19:04.979Z,10.32
2019-05-16T05:21:40.924Z,10.39
2019-05-16T05:24:14.468Z,10.40
2019-05-16T05:26:50.366Z,10.41
2019-05-16T05:29:23.973Z,10.44
2019-05-16T05:32:03.564Z,10.46
2019-05-16T05:34:33.578Z,10.46
2019-05-16T05:37:07.426Z,10.44
2019-05-16T05:39:42.701Z,10.46
2019-05-16T05:42:16.750Z,10.47
2019-05-16T05:44:50.808Z,10.53
2019-05-16T05:47:24.912Z,10.59
2019-05-16T05:50:00.650Z,10.70
2019-05-16T05:52:34.325Z,11.03
2019-05-16T05:55:10.531Z,11.51
2019-05-16T05:57:44.047Z,11.94
2019-05-16T06:00:21.058Z,12.34
2019-05-16T06:02:54.197Z,12.82
2019-05-16T06:05:30.420Z,13.33
2019-05-16T06:08:03.580Z,13.75
2019-05-16T06:10:37.457Z,14.01
2019-05-16T06:13:11.266Z,14.10
2019-05-16T06:15:45.129Z,14.18
2019-05-16T06:18:19.831Z,14.12
2019-05-16T06:20:54.094Z,13.97
2019-05-16T06:23:30.814Z,13.88
2019-05-16T06:26:03.551Z,13.75
2019-05-16T06:28:37.505Z,13.71
2019-05-16T06:31:14.017Z,13.63
2019-05-16T06:33:47.065Z,13.66
2019-05-16T06:36:21.739Z,13.72
2019-05-16T06:38:55.556Z,13.72
2019-05-16T06:41:30.407Z,13.73
2019-05-16T06:44:04.526Z,13.70
2019-05-16T06:46:54.031Z,13.74
2019-05-16T06:49:14.154Z,13.93
2019-05-16T06:51:48.146Z,14.15
2019-05-16T06:54:22.123Z,14.56
2019-05-16T06:56:55.984Z,14.97
2019-05-16T06:59:29.885Z,15.44
2019-05-16T07:02:03.903Z,15.85
2019-05-16T07:04:37.140Z,16.11
2019-05-16T07:07:12.671Z,16.34
2019-05-16T07:09:58.078Z,16.58
2019-05-16T07:12:22.259Z,16.97
2019-05-16T07:14:55.543Z,17.23
2019-05-16T07:17:30.679Z,17.40
2019-05-16T07:20:06.716Z,17.55
2019-05-16T07:22:40.841Z,17.58
2019-05-16T07:25:15.117Z,17.73
2019-05-16T07:27:50.965Z,17.81
2019-05-16T07:30:24.705Z,18.12
2019-05-16T07:33:00.211Z,18.32
2019-05-16T07:35:33.469Z,18.36
2019-05-16T07:38:06.769Z,18.33
2019-05-16T07:40:40.657Z,18.52
2019-05-16T07:43:13.774Z,18.67
2019-05-16T07:45:47.605Z,18.92
2019-05-16T07:48:21.868Z,19.08
2019-05-16T07:50:56.161Z,19.24
2019-05-16T07:53:32.718Z,19.06
2019-05-16T07:56:05.143Z,19.22
2019-05-16T07:58:38.270Z,19.32
2019-05-16T08:01:12.989Z,19.56
2019-05-16T08:03:47.024Z,19.66
2019-05-16T08:06:20.298Z,19.68
2019-05-16T08:08:54.396Z,19.72
2019-05-16T08:11:30.383Z,19.75
2019-05-16T08:14:03.819Z,19.88
2019-05-16T08:16:37.035Z,20.06
2019-05-16T08:19:10.974Z,20.11
2019-05-16T08:21:44.804Z,20.31
2019-05-16T08:24:20.337Z,20.44
2019-05-16T08:26:53.438Z,20.75
2019-05-16T08:29:27.664Z,20.88
2019-05-16T08:32:02.283Z,20.87
2019-05-16T08:34:36.364Z,21.04
2019-05-16T08:37:32.760Z,21.30
2019-05-16T08:39:45.937Z,21.49
2019-05-16T08:42:20.769Z,21.78
2019-05-16T08:44:54.911Z,21.95
2019-05-16T08:47:32.144Z,22.27
2019-05-16T08:52:44.748Z,22.33
2019-05-16T08:55:21.752Z,22.39
2019-05-16T08:57:54.693Z,22.47
2019-05-16T09:00:33.137Z,22.32
2019-05-16T09:03:04.656Z,22.41
2019-05-16T09:05:42.645Z,22.76
2019-05-16T09:08:14.144Z,22.51
2019-05-16T09:10:34.456Z,22.32
2019-05-16T09:10:59.734Z,22.23
2019-05-16T09:13:23.478Z,22.06
2019-05-16T09:15:57.180Z,21.77
2019-05-16T09:18:40.678Z,21.37
2019-05-16T09:21:07.434Z,20.69
2019-05-16T09:23:41.718Z,20.24
2019-05-16T09:26:19.280Z,19.70
2019-05-16T09:28:51.679Z,19.11
2019-05-16T09:31:27.668Z,18.65
2019-05-16T09:34:02.142Z,18.56
2019-05-16T09:36:37.101Z,18.39
2019-05-16T09:39:10.285Z,18.66
2019-05-16T09:41:50.965Z,18.65
2019-05-16T09:44:20.095Z,18.64
2019-05-16T09:46:56.839Z,18.79
2019-05-16T09:49:29.712Z,19.33
2019-05-16T09:52:03.847Z,19.39
2019-05-16T09:54:38.158Z,19.45
2019-05-16T09:57:12.012Z,19.21
2019-05-16T09:59:46.574Z,19.03
2019-05-16T10:02:20.697Z,18.71
2019-05-16T10:04:53.828Z,18.33
2019-05-16T10:07:29.150Z,18.19
2019-05-16T10:10:03.168Z,18.31
2019-05-16T10:12:37.104Z,18.48
2019-05-16T10:15:12.870Z,18.63
2019-05-16T10:17:47.613Z,18.36
2019-05-16T10:20:21.878Z,17.95
2019-05-16T10:22:57.951Z,17.40
2019-05-16T10:25:31.401Z,17.04
2019-05-16T10:28:05.375Z,17.03
2019-05-16T10:30:38.600Z,16.82
2019-05-16T10:33:12.514Z,16.59
2019-05-16T10:35:48.008Z,16.32
2019-05-16T10:38:22.060Z,16.02
2019-05-16T10:40:56.609Z,16.10
2019-05-16T10:43:30.542Z,16.06
2019-05-16T10:46:06.510Z,15.92
2019-05-16T10:48:40.006Z,15.75
2019-05-16T10:51:13.922Z,15.47
2019-05-16T10:54:13.125Z,15.35
2019-05-16T10:56:23.547Z,15.29
2019-05-16T10:59:28.485Z,15.03
2019-05-16T11:01:33.137Z,14.78
2019-05-16T11:04:07.604Z,14.58
2019-05-16T11:06:41.601Z,14.39
2019-05-16T11:09:17.343Z,14.08
2019-05-16T11:11:51.000Z,13.89
2019-05-16T11:14:27.980Z,13.71
2019-05-16T11:17:00.379Z,13.61
2019-05-16T11:19:34.260Z,13.51
2019-05-16T11:22:08.131Z,13.45
2019-05-16T11:24:42.156Z,13.32
2019-05-16T11:27:15.317Z,13.32
2019-05-16T11:29:49.148Z,13.34
2019-05-16T11:32:23.038Z,13.31
2019-05-16T11:34:57.048Z,13.24
2019-05-16T11:37:30.856Z,13.18
2019-05-16T11:40:09.278Z,13.13
2019-05-16T11:42:43.186Z,13.09
2019-05-16T11:45:17.352Z,12.82
2019-05-16T11:47:51.308Z,12.82
2019-05-16T11:50:27.846Z,12.69
